Decoded Metar for USPP (PERM in RUSSIA) (IATA:PEE) | Meteo·Mobile Aviation Weather
aviador You're here:

USPP Decoded Metar

PERM in RUSSIA
Report Time2019-10-21 06:30:00
UTC Time2019-10-21 07:09:36
Flight Rules ifr IFR
Wind230° at 10 kt
W.Decomp.*RWY 21: 9.9 kt HW 1.0 kt RCW
Visibility9999 m
Phenomena:N/A
Clouds:Overcast 007 Hf
Ceiling700 ft
Temp04°C (ISA -10)
Dew Point04°C (100% RH)
AAT-0.9°C
QNH1021 hPa
Density Alt-797 ft
Elevation558 ft
Report Wrong Elevation
Raw Report
USPP 210630Z 23005MPS 9999 OVC007 04/04 Q1021 R21/290250 NOSIG RMK
QFE755=

Extra information for USPP:More info

Metar Taf Metar & Taf Last 4 Metars F.Rules Stats Wind Profile Meteogram Temp Stats Airport Information Weather charts Add Link Nearby VenuesMetar ALERT Operation Metar Decoded Social comments